Flight Track Log - Related Links

Times and Time Zones

All times are in EDT time to prevent confusion due to time zone crossing. See the DAL3643 flight status page for this flight to view local times or setup timezone preferences in your user account.


Time Position Orientation Groundspeed Altitude Reporting Facility
EDT Latitude Longitude Course Direction KTS MPH feet Rate Location/Type
Fri 11:40:30 AM 38.7333 -90.3333 107° East 152 175 1,500  Level Gateway (St. Louis) TRACON
Fri 11:41:30 AM 38.7333 -90.2667 90° East 211 243 3,600 2,160 Climbing Gateway (St. Louis) TRACON
Fri 11:41:45 AM 38.7367 -90.2514 74° East 196 226 4,200 2,385 Climbing Kansas City Center
Fri 11:42:48 AM 38.7353 -90.1706 91° East 216 249 6,700 2,565 Climbing Kansas City Center
Fri 11:43:49 AM 38.7169 -90.0789 104° East 251 289 9,500 2,016 Climbing Kansas City Center
Fri 11:44:00 AM 38.6078 -89.8578 107° East  Level FlightAware Approximate
Fri 11:44:53 AM 38.6839 -89.9783 113° Southeast 289 333 10,900  Level Kansas City Center
Fri 11:45:00 AM 38.5767 -89.7258 107° East  Level FlightAware Approximate
Fri 11:45:54 AM 38.6475 -89.8647 112° Southeast 338 389 12,900  Level Kansas City Center
Fri 11:46:55 AM 38.6100 -89.7472 112° Southeast 349 402 14,900 1,918 Climbing Kansas City Center
Fri 11:47:56 AM 38.5619 -89.5978 112° Southeast 367 422 16,800 1,392 Climbing Kansas City Center
Fri 11:49:00 AM 38.5203 -89.4681 112° Southeast 392 451 17,800 1,008 Climbing Kansas City Center
Fri 11:50:01 AM 38.4728 -89.3217 112° Southeast 415 478 18,900 1,082 Climbing Kansas City Center
Fri 11:51:02 AM 38.4272 -89.1819 113° Southeast 427 491 20,000 1,008 Climbing Kansas City Center
Fri 11:52:06 AM 38.4131 -89.0278 97° East 439 505 21,000 484 Climbing Kansas City Center
Fri 11:53:06 AM 38.4033 -88.8617 94° East 436 502 21,000  Level Kansas City Center
Fri 11:54:09 AM 38.3944 -88.7100 94° East 431 496 21,000  Level Kansas City Center
Fri 11:55:10 AM 38.3861 -88.5556 94° East 427 491 21,000  Level Kansas City Center
Fri 11:56:11 AM 38.3783 -88.4083 94° East 422 486 21,000  Level Kansas City Center
Fri 11:57:14 AM 38.3664 -88.2575 96° East 426 490 21,000  Level Kansas City Center
Fri 11:58:07 AM 38.3575 -88.1086 94° East 425 489 21,000  Level Indianapolis Center
Fri 11:59:09 AM 38.3475 -87.9583 95° East 426 490 21,000  Level Indianapolis Center
Fri 12:00:11 PM 38.3381 -87.8069 95° East 428 493 21,000  Level Indianapolis Center
Fri 12:01:12 PM 38.3278 -87.6558 95° East 427 491 21,000  Level Indianapolis Center
Fri 12:02:14 PM 38.3175 -87.5058 95° East 426 490 21,000  Level Indianapolis Center
Fri 12:03:16 PM 38.3069 -87.3553 95° East 425 489 21,000  Level Indianapolis Center
Fri 12:04:18 PM 38.2953 -87.1994 95° East 437 503 21,000  Level Indianapolis Center
Fri 12:05:20 PM 38.2831 -87.0358 95° East 449 517 21,000  Level Indianapolis Center
Fri 12:06:22 PM 38.2706 -86.8611 95° East 453 521 21,000  Level Indianapolis Center
Fri 12:07:24 PM 38.2636 -86.7069 93° East 442 509 21,000  Level Indianapolis Center
Fri 12:08:25 PM 38.3042 -86.5631 70° East 432 497 21,000  Level Indianapolis Center
Fri 12:09:27 PM 38.3475 -86.4219 69° East 430 495 21,000  Level Indianapolis Center
Fri 12:10:29 PM 38.4003 -86.2519 68° East 429 494 21,000  Level Indianapolis Center
Fri 12:11:31 PM 38.4436 -86.1106 69° East 429 494 21,000 -194 Level Indianapolis Center
Fri 12:12:33 PM 38.4878 -85.9692 68° East 429 494 20,600 -1,500 Descending Indianapolis Center
Fri 12:13:35 PM 38.5300 -85.8297 69° East 422 486 17,900 -2,341 Descending Indianapolis Center
Fri 12:14:36 PM 38.5692 -85.7011 69° East 393 452 15,800 -2,460 Descending Indianapolis Center
Fri 12:16:16 PM 38.6500 -85.5000 63° Northeast 346 398 11,300 -2,274 Descending Cincinnati TRACON
Fri 12:16:40 PM 38.6656 -85.4714 55° Northeast 349 402 11,100 -209 Descending Indianapolis Center
Fri 12:17:42 PM 38.7122 -85.3625 61° Northeast 349 402 11,000 -49 Descending Indianapolis Center
Fri 12:18:43 PM 38.7608 -85.2508 61° Northeast 358 412 11,000  Level Indianapolis Center
Fri 12:19:45 PM 38.8178 -85.1211 61° Northeast 356 410 11,000  Level Indianapolis Center
Fri 12:20:47 PM 38.8653 -85.0106 61° Northeast 354 407 11,000 -290 Level Indianapolis Center
Fri 12:21:49 PM 38.9100 -84.9081 61° Northeast 332 382 10,400 -723 Descending Indianapolis Center
Fri 12:22:10 PM 38.9167 -84.8667 78° East 282 325 10,000 -1,037 Descending Cincinnati TRACON
Fri 12:23:10 PM 38.9667 -84.7833 52° Northeast 268 308 9,000 -850 Descending Cincinnati TRACON
Fri 12:24:10 PM 39.0333 -84.7833 360° North 261 300 8,300 -850 Descending Cincinnati TRACON
Fri 12:25:10 PM 39.1000 -84.7833 360° North 259 298 7,300 -1,000 Descending Cincinnati TRACON
Fri 12:26:10 PM 39.1667 -84.7833 360° North 208 239 6,300 -1,350 Descending Cincinnati TRACON
Fri 12:27:10 PM 39.2000 -84.7333 49° Northeast 188 216 4,600 -1,700 Descending Cincinnati TRACON

Login

Don't have an account? Register now (free) for customized features, flight alerts, and more!